Terminal Aerodrome Forecast
Issued by NWS Albany, NY

Home | Current Version | Previous Version | Text Only | Print | Product List | Glossary On
Versions: 1 2 3 4 5 6 7 8 9 10 11 12 13 14 15 16 17 18 19 20 21 22 23 24
000
FTUS41 KALY 072355
TAFGFL
TAF
KGFL 072355Z 0800/0824 17007KT 6SM BR SCT050 SCT250
     FM080300 18010KT P6SM BKN050 BKN100
     FM080500 20007KT 6SM BR SCT025 OVC040
      TEMPO 0806/0809 3SM -SHRA BKN015 OVC035
     FM081000 26008KT 5SM BR VCSH BKN025 OVC040
     FM081400 36008KT P6SM SCT025 BKN040
     FM081800 02010KT P6SM SCT050 SCT250
     FM082200 02007KT P6SM SKC=

USA.gov is the U.S. government's official web portal to all federal, state and local government web resources and services.